KRBD

Dallas Executive Airport

Dallas, Texas, USA
METAR KRBD 190853Z AUTO 19004KT 10SM CLR 26/21 A2993 RMK AO2 SLP125 T02610206 56001
Observed Flight Rules
Sep-19 @ 08:53 UTC (11 minutes ago) Visual Flight Rules
Wind Visibility Clouds
190° at 4 knots 10 miles
  • Clear skies
Temperatures Readings
Current 26°C / 79°F
Dewpoint 21°C / 70°F
Humidity 74%
Altimeter 29.93" Hg
Pressure 1012.5 hPa
Elevation 203
METAR KRBD 190853Z AUTO 19004KT 10SM CLR 26/21 A2993 RMK AO2 SLP125 T02610206 56001
Observed Flight Rules
Sep-19 @ 08:53 UTC
(11 minutes ago)
VFR
Wind Visibility
190° at 4 knots 10 miles
Clouds
  • Clear skies
Temperature Dewpoint
26°C / 79°F 21°C / 70°F
Humidity Altimeter Pressure
74% 29.93" Hg 1012.5 hPa